Time;durP1;ratioP1;P1;durP2;ratioP2;P2;SDS_P1;SDS_P2;PMS_P1;PMS_P2;Temp;Humidity;BMP_temperature;BMP_pressure;BME280_temperature;BME280_humidity;BME280_pressure;Samples;Min_cycle;Max_cycle;Signal;HPM_P1;HPM_P2
2022/10/27 00:00:11;;;;;;;6.10;1.40;;;15.20;99.90;;;;;;5084428;28;20044;-69
2022/10/27 00:02:37;;;;;;;9.82;1.23;;;15.20;99.90;;;;;;5084305;28;20032;-69
2022/10/27 00:05:02;;;;;;;3.05;1.00;;;15.20;99.90;;;;;;5087068;28;20055;-70
2022/10/27 00:07:28;;;;;;;6.38;1.38;;;15.20;99.90;;;;;;5088509;28;20074;-69
2022/10/27 00:09:53;;;;;;;3.30;1.05;;;15.20;99.90;;;;;;5086058;28;20085;-71
2022/10/27 00:12:19;;;;;;;8.25;1.42;;;15.10;99.90;;;;;;5088162;28;20037;-69
2022/10/27 00:14:44;;;;;;;8.18;1.48;;;15.10;99.90;;;;;;5085948;28;20047;-70
2022/10/27 00:17:10;;;;;;;5.65;1.55;;;15.10;99.90;;;;;;5086489;28;20040;-71
2022/10/27 00:19:36;;;;;;;7.85;1.77;;;15.10;99.90;;;;;;5087620;28;20042;-70
2022/10/27 00:22:01;;;;;;;5.70;1.60;;;15.10;99.90;;;;;;5085827;28;20036;-70
2022/10/27 00:24:27;;;;;;;10.50;2.10;;;15.10;99.90;;;;;;5087737;28;20067;-69
2022/10/27 00:26:52;;;;;;;9.95;2.60;;;15.10;99.90;;;;;;5087630;28;20062;-70
2022/10/27 00:29:18;;;;;;;6.78;1.70;;;15.10;99.90;;;;;;5088052;28;20396;-69
2022/10/27 00:31:43;;;;;;;9.90;1.58;;;15.10;99.90;;;;;;5087919;28;20040;-69
2022/10/27 00:34:09;;;;;;;6.65;2.22;;;15.10;99.90;;;;;;5086507;28;21700;-69
2022/10/27 00:36:35;;;;;;;6.88;2.20;;;15.10;99.90;;;;;;5087634;28;20060;-69
2022/10/27 00:39:00;;;;;;;6.07;1.67;;;15.10;99.90;;;;;;5087286;28;20127;-70
2022/10/27 00:41:30;;;;;;;3.15;1.77;;;15.00;99.90;;;;;;5086543;28;20032;-69
2022/10/27 00:43:58;;;;;;;9.70;1.50;;;15.00;99.90;;;;;;5086232;28;20043;-70
2022/10/27 00:46:23;;;;;;;4.90;1.63;;;14.90;99.90;;;;;;5088001;28;20411;-69
2022/10/27 00:48:53;;;;;;;3.28;1.50;;;14.90;99.90;;;;;;5086978;28;20036;-71
2022/10/27 00:51:19;;;;;;;9.13;1.85;;;14.80;99.90;;;;;;5087872;28;20515;-70
2022/10/27 00:53:46;;;;;;;8.57;1.92;;;14.80;99.90;;;;;;5086657;28;20109;-69
2022/10/27 00:56:12;;;;;;;9.90;1.90;;;14.80;99.90;;;;;;5087432;28;20195;-69
2022/10/27 00:58:39;;;;;;;5.25;1.77;;;14.80;99.90;;;;;;5087327;28;20032;-68
2022/10/27 01:01:05;;;;;;;4.15;1.80;;;14.80;99.90;;;;;;5087071;28;20119;-71
2022/10/27 01:03:32;;;;;;;7.97;2.38;;;14.70;99.90;;;;;;5086640;28;20181;-69
2022/10/27 01:05:58;;;;;;;4.50;1.48;;;14.70;99.90;;;;;;5086621;28;20488;-69
2022/10/27 01:08:25;;;;;;;3.33;1.52;;;14.70;99.90;;;;;;5087698;28;20032;-71
2022/10/27 01:10:52;;;;;;;5.95;1.38;;;14.70;99.90;;;;;;5086899;28;20058;-68
2022/10/27 01:13:18;;;;;;;5.45;1.98;;;14.60;99.90;;;;;;5086983;28;20028;-69
2022/10/27 01:16:15;;;;;;;7.30;1.63;;;14.60;99.90;;;;;;5082030;28;20036;-69
2022/10/27 01:18:53;;;;;;;6.18;1.80;;;14.70;99.90;;;;;;5086203;27;20040;-69
2022/10/27 01:21:44;;;;;;;5.10;1.83;;;14.70;99.90;;;;;;5079422;28;20636;-69
2022/10/27 01:24:31;;;;;;;4.15;2.05;;;14.60;99.90;;;;;;5085432;28;20396;-69
2022/10/27 01:27:04;;;;;;;9.30;2.17;;;14.60;99.90;;;;;;5083879;28;20737;-69
2022/10/27 01:30:04;;;;;;;4.72;1.92;;;14.60;99.90;;;;;;5083021;28;20040;-69
2022/10/27 01:32:50;;;;;;;4.00;1.60;;;14.60;99.90;;;;;;5084424;27;20035;-69
2022/10/27 01:35:43;;;;;;;5.57;1.95;;;14.60;99.90;;;;;;5082349;27;20039;-69
2022/10/27 01:38:28;;;;;;;7.22;2.40;;;14.60;99.90;;;;;;5065546;28;20047;-69
2022/10/27 01:41:06;;;;;;;5.82;1.92;;;14.60;99.90;;;;;;5063144;28;20072;-70
2022/10/27 01:43:34;;;;;;;5.70;2.67;;;14.60;99.90;;;;;;5064566;28;20040;-72
2022/10/27 01:46:02;;;;;;;4.95;1.92;;;14.60;99.90;;;;;;5065920;28;20060;-69
2022/10/27 01:48:31;;;;;;;8.35;2.35;;;14.60;99.90;;;;;;5066588;28;20052;-70
2022/10/27 01:50:56;;;;;;;4.25;1.70;;;14.60;99.90;;;;;;5064027;28;20032;-69
2022/10/27 01:53:22;;;;;;;6.65;1.80;;;14.50;99.90;;;;;;5065776;28;20028;-70
2022/10/27 01:56:01;;;;;;;9.55;1.88;;;14.50;99.90;;;;;;5065166;28;20074;-70
2022/10/27 01:58:47;;;;;;;9.18;2.08;;;14.50;99.90;;;;;;5066250;28;20041;-69
2022/10/27 02:01:16;;;;;;;5.68;2.20;;;14.60;99.90;;;;;;5056194;28;20489;-68
2022/10/27 02:04:04;;;;;;;6.50;1.80;;;14.60;99.90;;;;;;5059563;28;20044;-70
2022/10/27 02:06:36;;;;;;;6.65;1.52;;;14.60;99.90;;;;;;5064748;28;20377;-68
2022/10/27 02:09:23;;;;;;;7.00;2.17;;;14.60;99.90;;;;;;5065073;28;20032;-69
2022/10/27 02:11:51;;;;;;;7.05;1.70;;;14.50;99.90;;;;;;5065179;28;20130;-70
2022/10/27 02:14:18;;;;;;;5.47;1.70;;;14.50;99.90;;;;;;5063847;28;20032;-70
2022/10/27 02:16:53;;;;;;;3.83;1.73;;;14.50;99.90;;;;;;5064431;28;20036;-69
2022/10/27 02:19:25;;;;;;;7.60;2.38;;;14.50;99.90;;;;;;5063015;28;20032;-70
2022/10/27 02:21:55;;;;;;;7.22;1.75;;;14.50;99.90;;;;;;5064650;28;20040;-70
2022/10/27 02:24:21;;;;;;;5.25;2.00;;;14.50;99.90;;;;;;5064910;28;20037;-69
2022/10/27 02:26:52;;;;;;;5.30;1.85;;;14.50;99.90;;;;;;5062919;28;20562;-72
2022/10/27 02:29:28;;;;;;;5.55;1.60;;;14.50;99.90;;;;;;5065869;28;20396;-69
2022/10/27 02:31:58;;;;;;;10.75;1.98;;;14.40;99.90;;;;;;5064534;28;20040;-71
2022/10/27 02:34:25;;;;;;;8.27;1.92;;;14.40;99.90;;;;;;5064714;28;20047;-69
2022/10/27 02:36:50;;;;;;;5.22;1.75;;;14.40;99.90;;;;;;5062511;28;20040;-71
2022/10/27 02:39:16;;;;;;;8.50;1.75;;;14.30;99.90;;;;;;5065502;28;20407;-69
2022/10/27 02:41:41;;;;;;;6.95;2.17;;;14.30;99.90;;;;;;5065094;28;20747;-68
2022/10/27 02:44:07;;;;;;;5.72;2.15;;;14.30;99.90;;;;;;5064368;28;20047;-69
2022/10/27 02:46:32;;;;;;;5.60;1.35;;;14.30;99.90;;;;;;5065322;28;20032;-71
2022/10/27 02:48:58;;;;;;;5.22;1.73;;;14.30;99.90;;;;;;5064472;28;20036;-71
2022/10/27 02:51:24;;;;;;;6.78;1.70;;;14.30;99.90;;;;;;5065185;28;20472;-69
2022/10/27 02:53:49;;;;;;;3.72;1.75;;;14.20;99.90;;;;;;5062154;28;20119;-69
2022/10/27 02:56:15;;;;;;;10.05;2.75;;;14.30;99.90;;;;;;5065225;28;20113;-69
2022/10/27 02:58:40;;;;;;;9.05;1.83;;;14.20;99.90;;;;;;5064989;28;20151;-68
2022/10/27 03:01:06;;;;;;;6.32;1.55;;;14.20;99.90;;;;;;5064704;28;20157;-69
2022/10/27 03:03:32;;;;;;;6.32;1.92;;;14.20;99.90;;;;;;5063023;28;20106;-71
2022/10/27 03:05:58;;;;;;;7.57;1.92;;;14.20;99.90;;;;;;5063917;28;21021;-71
2022/10/27 03:08:24;;;;;;;8.45;2.22;;;14.10;99.90;;;;;;5065414;28;20058;-69
2022/10/27 03:10:49;;;;;;;4.97;1.98;;;14.10;99.90;;;;;;5062708;28;20566;-71
2022/10/27 03:13:15;;;;;;;5.78;2.03;;;14.10;99.90;;;;;;5064650;28;20036;-68
2022/10/27 03:15:42;;;;;;;3.63;1.67;;;14.10;99.90;;;;;;5064204;28;20040;-70
2022/10/27 03:18:08;;;;;;;7.18;1.80;;;14.10;99.90;;;;;;5064658;28;20036;-70
2022/10/27 03:20:33;;;;;;;7.35;2.30;;;14.10;99.90;;;;;;5064438;28;20036;-69
2022/10/27 03:22:59;;;;;;;5.00;1.98;;;14.20;99.90;;;;;;5062032;28;20036;-69
2022/10/27 03:25:24;;;;;;;8.98;2.05;;;14.20;99.90;;;;;;5064571;28;20396;-70
2022/10/27 03:27:50;;;;;;;6.60;1.80;;;14.10;99.90;;;;;;5064330;28;20063;-69
2022/10/27 03:30:16;;;;;;;11.57;2.05;;;14.20;99.90;;;;;;5065145;28;20086;-69
2022/10/27 03:32:49;;;;;;;4.47;1.90;;;14.10;99.90;;;;;;5064317;28;20495;-69
2022/10/27 03:35:19;;;;;;;5.40;2.50;;;14.10;99.90;;;;;;5062599;28;20354;-69
2022/10/27 03:37:45;;;;;;;7.40;2.40;;;14.10;99.90;;;;;;5066411;28;20028;-70
2022/10/27 03:40:11;;;;;;;7.13;2.17;;;14.10;99.90;;;;;;5068425;28;20165;-70
2022/10/27 03:42:41;;;;;;;6.90;1.80;;;14.10;99.90;;;;;;5066363;28;20032;-70
2022/10/27 03:45:08;;;;;;;11.20;2.60;;;14.10;99.90;;;;;;5063837;28;20043;-69
2022/10/27 03:47:34;;;;;;;5.97;2.25;;;14.10;99.90;;;;;;5064751;28;20635;-69
2022/10/27 03:49:59;;;;;;;8.80;2.58;;;14.10;99.90;;;;;;5067832;28;20127;-69
2022/10/27 03:52:25;;;;;;;9.23;2.38;;;14.10;99.90;;;;;;5068501;28;20032;-69
2022/10/27 03:54:51;;;;;;;6.70;2.40;;;14.10;99.90;;;;;;5065882;28;20496;-70
2022/10/27 03:57:16;;;;;;;5.65;2.03;;;14.00;99.90;;;;;;5069166;28;20032;-69
2022/10/27 03:59:42;;;;;;;6.65;2.70;;;14.10;99.90;;;;;;5066745;28;20048;-68
2022/10/27 04:02:07;;;;;;;4.32;2.03;;;14.10;99.90;;;;;;5067966;28;20055;-69
2022/10/27 04:04:33;;;;;;;11.98;2.70;;;14.00;99.90;;;;;;5068775;28;20036;-69
2022/10/27 04:06:58;;;;;;;7.57;1.92;;;14.00;99.90;;;;;;5067542;28;20040;-72
2022/10/27 04:09:24;;;;;;;4.90;1.88;;;14.00;99.90;;;;;;5067071;28;20105;-69
2022/10/27 04:11:49;;;;;;;4.68;1.88;;;14.10;99.90;;;;;;5067222;28;20442;-69
2022/10/27 04:14:15;;;;;;;5.65;2.38;;;14.10;99.90;;;;;;5067856;28;20092;-69
2022/10/27 04:16:40;;;;;;;4.57;1.55;;;14.10;99.90;;;;;;5067427;28;20111;-70
2022/10/27 04:19:06;;;;;;;8.40;1.88;;;14.00;99.90;;;;;;5066479;28;20473;-69
2022/10/27 04:21:32;;;;;;;9.02;2.20;;;14.10;99.90;;;;;;5068260;28;20569;-69
2022/10/27 04:23:57;;;;;;;7.55;2.10;;;14.00;99.90;;;;;;5064824;28;20119;-68
2022/10/27 04:26:23;;;;;;;10.73;2.17;;;14.00;99.90;;;;;;5068026;28;20173;-70
2022/10/27 04:28:48;;;;;;;3.63;1.83;;;14.10;99.90;;;;;;5067594;28;20043;-68
2022/10/27 04:31:14;;;;;;;6.65;2.22;;;14.10;99.90;;;;;;5067631;28;20576;-69
2022/10/27 04:33:40;;;;;;;8.20;1.88;;;14.10;99.90;;;;;;5067189;28;20033;-69
2022/10/27 04:36:06;;;;;;;5.07;1.83;;;14.10;99.90;;;;;;5066918;28;20044;-70
2022/10/27 04:38:31;;;;;;;7.28;1.83;;;14.20;99.90;;;;;;5064222;28;20043;-69
2022/10/27 04:41:01;;;;;;;4.53;1.30;;;14.20;99.90;;;;;;5065175;28;20070;-69
2022/10/27 04:43:27;;;;;;;5.85;1.48;;;14.30;99.90;;;;;;5067111;28;20033;-70
2022/10/27 04:45:53;;;;;;;5.97;1.35;;;14.20;99.90;;;;;;5066372;28;20033;-70
2022/10/27 04:48:19;;;;;;;6.57;1.50;;;14.20;99.90;;;;;;5065015;28;20046;-69
2022/10/27 04:50:44;;;;;;;3.92;1.27;;;14.30;99.90;;;;;;5066448;28;20032;-69
2022/10/27 04:53:10;;;;;;;4.18;1.55;;;14.30;99.90;;;;;;5066245;28;20063;-70
2022/10/27 04:55:35;;;;;;;6.35;2.13;;;14.30;99.90;;;;;;5059649;28;20070;-69
2022/10/27 04:58:01;;;;;;;2.97;1.10;;;14.30;99.90;;;;;;5057553;28;20032;-71
2022/10/27 05:00:27;;;;;;;4.05;0.90;;;14.30;99.90;;;;;;5066787;28;20028;-70
2022/10/27 05:02:54;;;;;;;3.22;1.00;;;14.40;99.90;;;;;;5063346;28;20041;-70
2022/10/27 05:05:21;;;;;;;11.75;1.73;;;14.30;99.90;;;;;;5064488;28;20031;-69
2022/10/27 05:07:57;;;;;;;6.55;1.00;;;14.40;99.90;;;;;;5066028;28;20033;-71
2022/10/27 05:10:23;;;;;;;2.90;0.85;;;14.40;99.90;;;;;;5062208;28;20039;-70
2022/10/27 05:12:49;;;;;;;2.67;0.80;;;14.40;99.90;;;;;;5065832;28;20029;-70
2022/10/27 05:15:15;;;;;;;2.90;1.15;;;14.40;99.90;;;;;;5065238;28;20037;-69
2022/10/27 05:17:40;;;;;;;2.53;0.77;;;14.50;99.90;;;;;;5065374;28;20471;-69
2022/10/27 05:20:07;;;;;;;6.68;1.25;;;14.50;99.90;;;;;;5065936;28;20136;-70
2022/10/27 05:22:33;;;;;;;5.18;0.90;;;14.50;99.90;;;;;;5065913;28;20044;-70
2022/10/27 05:24:59;;;;;;;5.43;1.00;;;14.50;99.90;;;;;;5060307;28;20067;-70
2022/10/27 05:27:24;;;;;;;2.78;1.00;;;14.50;99.90;;;;;;5053201;28;20377;-70
2022/10/27 05:29:50;;;;;;;6.95;1.05;;;14.50;99.90;;;;;;5058916;28;20048;-68
2022/10/27 05:32:15;;;;;;;6.40;0.88;;;14.40;99.90;;;;;;5057207;28;20097;-71
2022/10/27 05:34:42;;;;;;;6.38;1.60;;;14.40;99.90;;;;;;5074575;28;20032;-70
2022/10/27 05:37:07;;;;;;;2.22;1.25;;;14.40;99.90;;;;;;5077115;28;20408;-69
2022/10/27 05:39:33;;;;;;;4.50;0.80;;;14.40;99.90;;;;;;5081972;28;20041;-69
2022/10/27 05:41:59;;;;;;;5.82;1.20;;;14.30;99.90;;;;;;5078193;28;20043;-70
2022/10/27 05:44:24;;;;;;;5.00;1.02;;;14.30;99.90;;;;;;5076468;28;20043;-69
2022/10/27 05:46:50;;;;;;;2.65;0.93;;;14.20;99.90;;;;;;5077212;28;20047;-69
2022/10/27 05:49:15;;;;;;;3.50;0.95;;;14.30;99.90;;;;;;5077997;28;20036;-69
2022/10/27 05:51:41;;;;;;;5.45;1.30;;;14.20;99.90;;;;;;5078027;28;20054;-69
2022/10/27 05:54:06;;;;;;;5.03;1.15;;;14.20;99.90;;;;;;5075667;28;20043;-71
2022/10/27 05:56:32;;;;;;;3.92;0.80;;;14.20;99.90;;;;;;5079827;28;20104;-68
2022/10/27 05:58:57;;;;;;;3.50;0.73;;;14.20;99.90;;;;;;5079275;28;20782;-69
2022/10/27 06:01:23;;;;;;;4.07;1.27;;;14.20;99.90;;;;;;5078038;28;20049;-69
2022/10/27 06:03:49;;;;;;;3.40;0.90;;;14.10;99.90;;;;;;5077919;28;20167;-70
2022/10/27 06:06:14;;;;;;;3.28;0.95;;;14.20;99.90;;;;;;5079979;28;20039;-69
2022/10/27 06:08:40;;;;;;;3.47;1.10;;;14.10;99.90;;;;;;5078516;28;20036;-69
2022/10/27 06:11:05;;;;;;;2.83;1.10;;;14.10;99.90;;;;;;5076481;28;20089;-70
2022/10/27 06:13:31;;;;;;;3.53;1.08;;;14.10;99.90;;;;;;5079049;28;20535;-69
2022/10/27 06:15:57;;;;;;;3.33;1.02;;;14.10;99.90;;;;;;5078922;28;20454;-70
2022/10/27 06:18:23;;;;;;;7.05;1.13;;;14.10;99.90;;;;;;5078594;28;20086;-71
2022/10/27 06:20:49;;;;;;;2.03;0.85;;;14.10;99.90;;;;;;5082182;28;20543;-69
2022/10/27 06:23:14;;;;;;;3.35;1.45;;;14.10;99.90;;;;;;5080433;28;20086;-69
2022/10/27 06:25:40;;;;;;;2.55;0.82;;;14.10;99.90;;;;;;5076716;28;20028;-69
2022/10/27 06:28:06;;;;;;;6.93;1.02;;;14.10;99.90;;;;;;5080132;28;20357;-69
2022/10/27 06:30:31;;;;;;;3.33;1.00;;;14.00;99.90;;;;;;5077930;28;20063;-69
2022/10/27 06:32:57;;;;;;;3.60;1.38;;;14.00;99.90;;;;;;5078508;28;20751;-69
2022/10/27 06:35:22;;;;;;;3.17;0.98;;;14.00;99.90;;;;;;5078952;28;20032;-70
2022/10/27 06:37:48;;;;;;;6.22;1.10;;;14.00;99.90;;;;;;5080590;28;20036;-69
2022/10/27 06:40:16;;;;;;;2.78;1.25;;;14.00;99.90;;;;;;5076954;28;20111;-70
2022/10/27 06:42:43;;;;;;;8.60;1.52;;;13.90;99.90;;;;;;5078381;28;20050;-70
2022/10/27 06:45:09;;;;;;;3.38;1.27;;;13.90;99.90;;;;;;5080052;28;20031;-68
2022/10/27 06:47:35;;;;;;;4.60;1.20;;;13.90;99.90;;;;;;5079432;28;20038;-71
2022/10/27 06:50:00;;;;;;;7.25;1.25;;;13.90;99.90;;;;;;5080525;28;20046;-69
2022/10/27 06:52:26;;;;;;;9.13;1.45;;;14.00;99.90;;;;;;5078439;28;20529;-68
2022/10/27 06:54:52;;;;;;;6.03;1.30;;;14.00;99.90;;;;;;5079429;28;20685;-73
2022/10/27 06:57:18;;;;;;;6.88;1.30;;;14.00;99.90;;;;;;5079379;28;20459;-71
2022/10/27 06:59:43;;;;;;;4.82;1.20;;;14.00;99.90;;;;;;5081428;28;20071;-69
2022/10/27 07:02:11;;;;;;;10.77;1.40;;;14.00;99.90;;;;;;5077874;28;20036;-70
2022/10/27 07:04:37;;;;;;;6.95;2.45;;;14.00;99.90;;;;;;5076630;28;20050;-70
2022/10/27 07:07:02;;;;;;;3.33;1.73;;;14.00;99.90;;;;;;5078438;28;20032;-70
2022/10/27 07:09:28;;;;;;;5.30;1.30;;;14.00;99.90;;;;;;5078662;28;20135;-70
2022/10/27 07:11:53;;;;;;;3.90;1.30;;;14.00;99.90;;;;;;5078752;28;20127;-71
2022/10/27 07:14:19;;;;;;;2.88;1.30;;;14.00;99.90;;;;;;5078639;28;20063;-70
2022/10/27 07:16:44;;;;;;;2.40;1.30;;;14.00;99.90;;;;;;5081079;28;20066;-71
2022/10/27 07:19:10;;;;;;;4.28;1.70;;;14.00;99.90;;;;;;5079917;28;20484;-69
2022/10/27 07:21:36;;;;;;;6.68;1.70;;;14.10;99.90;;;;;;5077739;28;20097;-70
2022/10/27 07:24:03;;;;;;;3.45;1.33;;;14.10;99.90;;;;;;5096127;28;20687;-70
2022/10/27 07:26:29;;;;;;;5.15;1.40;;;14.10;99.90;;;;;;5096884;28;20103;-70
2022/10/27 07:28:54;;;;;;;9.55;2.53;;;14.10;99.90;;;;;;5097451;28;20082;-71
2022/10/27 07:31:20;;;;;;;6.53;1.88;;;14.00;99.90;;;;;;5101395;28;20100;-69
2022/10/27 07:33:45;;;;;;;8.93;1.52;;;14.10;99.90;;;;;;5098861;28;20063;-70
2022/10/27 07:36:11;;;;;;;7.70;1.60;;;14.10;99.90;;;;;;5100171;28;20031;-68
2022/10/27 07:38:37;;;;;;;6.07;1.30;;;14.10;99.90;;;;;;5099205;28;20086;-70
2022/10/27 07:41:03;;;;;;;5.25;1.60;;;14.10;99.90;;;;;;5095069;28;20404;-70
2022/10/27 07:43:29;;;;;;;4.28;1.70;;;14.10;99.90;;;;;;5099177;28;20034;-72
2022/10/27 07:45:54;;;;;;;7.00;1.80;;;14.20;99.90;;;;;;5097511;28;21465;-70
2022/10/27 07:48:20;;;;;;;8.80;1.88;;;14.20;99.90;;;;;;5095800;28;20472;-69
2022/10/27 07:50:46;;;;;;;4.05;1.20;;;14.30;99.90;;;;;;5097573;28;20043;-68
2022/10/27 07:53:14;;;;;;;5.55;1.45;;;14.30;99.90;;;;;;5095699;28;20035;-69
2022/10/27 07:55:40;;;;;;;5.00;1.90;;;14.40;99.90;;;;;;5097621;28;20035;-69
2022/10/27 07:58:11;;;;;;;6.07;1.48;;;14.40;99.90;;;;;;5097941;28;20036;-70
2022/10/27 08:00:42;;;;;;;3.97;1.30;;;14.50;99.90;;;;;;5095747;28;20075;-70
2022/10/27 08:03:20;;;;;;;5.85;2.55;;;14.50;99.90;;;;;;5083002;28;20028;-69
2022/10/27 08:05:46;;;;;;;3.53;1.40;;;14.60;99.90;;;;;;5081016;28;20373;-69
2022/10/27 08:08:13;;;;;;;4.07;1.25;;;14.70;99.90;;;;;;5081781;28;20028;-71
2022/10/27 08:10:40;;;;;;;7.13;1.65;;;14.70;99.90;;;;;;5082044;28;20032;-71
2022/10/27 08:13:06;;;;;;;5.18;1.85;;;14.90;99.90;;;;;;5085534;28;20086;-70
2022/10/27 08:15:32;;;;;;;2.00;0.98;;;14.90;99.90;;;;;;5084141;28;20031;-70
2022/10/27 08:18:01;;;;;;;2.88;1.42;;;15.00;99.90;;;;;;5080593;28;20024;-70
2022/10/27 08:20:30;;;;;;;6.95;1.00;;;15.10;99.90;;;;;;5084032;28;20040;-70
2022/10/27 08:23:01;;;;;;;5.00;1.60;;;15.10;99.90;;;;;;5079815;28;20040;-69
2022/10/27 08:25:27;;;;;;;5.07;1.10;;;15.20;99.90;;;;;;5082929;28;20650;-70
2022/10/27 08:27:53;;;;;;;6.45;1.35;;;15.30;99.90;;;;;;5084421;28;20569;-70
2022/10/27 08:30:20;;;;;;;3.33;1.27;;;15.30;99.90;;;;;;5086228;28;20495;-70
2022/10/27 08:32:49;;;;;;;5.15;1.25;;;15.40;99.90;;;;;;5084620;28;20036;-70
2022/10/27 08:35:16;;;;;;;7.53;1.05;;;15.50;99.90;;;;;;5102028;27;20073;-70
2022/10/27 08:37:41;;;;;;;4.28;1.40;;;15.60;99.90;;;;;;5091022;27;20032;-70
2022/10/27 08:40:08;;;;;;;3.05;1.60;;;15.60;99.90;;;;;;5095062;28;20043;-69
2022/10/27 08:42:33;;;;;;;4.38;1.55;;;15.70;99.90;;;;;;5085254;28;20673;-69
2022/10/27 08:45:08;;;;;;;4.82;1.63;;;15.70;99.90;;;;;;5085886;28;20745;-70
2022/10/27 08:47:33;;;;;;;3.42;1.33;;;15.70;99.90;;;;;;5083041;28;20040;-70
2022/10/27 08:50:03;;;;;;;5.07;1.33;;;15.80;99.90;;;;;;5085880;28;20032;-70
2022/10/27 08:52:40;;;;;;;3.85;1.50;;;15.80;99.90;;;;;;5085413;28;20024;-69
2022/10/27 08:55:14;;;;;;;4.90;1.25;;;15.90;99.90;;;;;;5095380;27;20077;-71
2022/10/27 08:58:00;;;;;;;3.03;1.25;;;16.00;99.90;;;;;;5098896;27;20036;-71
2022/10/27 09:00:29;;;;;;;5.63;1.40;;;16.20;99.90;;;;;;5074075;27;20119;-70
2022/10/27 09:03:08;;;;;;;5.57;1.60;;;16.30;99.90;;;;;;5089922;27;20040;-70
2022/10/27 09:05:40;;;;;;;3.38;0.90;;;16.30;99.90;;;;;;5082244;28;20600;-69
2022/10/27 09:08:36;;;;;;;5.63;1.08;;;16.40;99.90;;;;;;5079297;28;20035;-69
2022/10/27 09:11:33;;;;;;;4.93;1.02;;;16.40;99.90;;;;;;5099755;27;20044;-71
2022/10/27 09:14:17;;;;;;;3.97;0.95;;;16.40;99.90;;;;;;5098223;27;20043;-70
2022/10/27 09:16:45;;;;;;;3.17;0.80;;;16.50;99.90;;;;;;5099837;27;20035;-69
2022/10/27 09:19:37;;;;;;;2.88;1.15;;;16.50;99.90;;;;;;5100153;28;20418;-70
2022/10/27 09:22:05;;;;;;;6.75;1.10;;;16.50;99.90;;;;;;5083981;27;20407;-71
2022/10/27 09:24:36;;;;;;;3.00;0.75;;;16.50;99.90;;;;;;5099191;28;20414;-68
2022/10/27 09:27:02;;;;;;;;;;;16.50;99.90;;;;;;5095587;28;20654;-69
2022/10/27 09:29:30;;;;;;;1.63;0.70;;;16.50;99.90;;;;;;5096778;28;19926;-69
2022/10/27 09:32:17;;;;;;;3.05;0.65;;;16.50;99.90;;;;;;5095068;28;20123;-68
2022/10/27 09:34:53;;;;;;;5.43;1.02;;;16.50;99.90;;;;;;5097396;28;20078;-68
2022/10/27 09:37:20;;;;;;;2.35;0.90;;;16.50;99.90;;;;;;5096071;28;20040;-70
2022/10/27 09:39:48;;;;;;;7.88;1.20;;;16.50;99.90;;;;;;5098608;27;20133;-68
2022/10/27 09:42:14;;;;;;;4.43;1.00;;;16.50;99.90;;;;;;5096733;27;20462;-69
2022/10/27 09:44:44;;;;;;;2.80;0.68;;;16.50;99.90;;;;;;5098440;27;20044;-69
2022/10/27 09:47:09;;;;;;;2.92;0.80;;;16.50;99.90;;;;;;5098912;28;20093;-69
2022/10/27 09:49:38;;;;;;;1.83;0.90;;;16.50;99.90;;;;;;5098816;27;20039;-69
2022/10/27 09:52:14;;;;;;;3.13;0.80;;;16.50;99.90;;;;;;5097671;28;20039;-70
2022/10/27 09:54:48;;;;;;;3.78;1.08;;;16.60;99.90;;;;;;5100345;28;20041;-70
2022/10/27 09:57:18;;;;;;;1.55;0.68;;;16.60;99.90;;;;;;5098554;28;20047;-69
2022/10/27 09:59:55;;;;;;;9.10;0.95;;;16.70;99.90;;;;;;5097855;27;20092;-70
2022/10/27 10:02:42;;;;;;;4.57;0.93;;;16.70;99.90;;;;;;5097181;28;20110;-68
2022/10/27 10:05:23;;;;;;;4.03;1.45;;;16.80;99.90;;;;;;5096397;27;20032;-68
2022/10/27 10:07:49;;;;;;;4.95;0.90;;;16.90;99.90;;;;;;5076050;28;20048;-69
2022/10/27 10:10:28;;;;;;;3.88;0.88;;;17.00;99.90;;;;;;5081287;28;20753;-70
2022/10/27 10:13:14;;;;;;;4.75;1.10;;;17.10;99.90;;;;;;5079561;27;20635;-66
2022/10/27 10:15:44;;;;;;;6.05;1.00;;;17.20;99.90;;;;;;5089053;27;20040;-69
2022/10/27 10:18:25;;;;;;;2.30;0.80;;;17.20;99.90;;;;;;5083794;28;20032;-70
2022/10/27 10:21:00;;;;;;;3.17;0.82;;;17.10;99.90;;;;;;5080471;28;20043;-71
2022/10/27 10:23:33;;;;;;;6.45;0.93;;;17.10;99.90;;;;;;5084081;28;20039;-68
2022/10/27 10:26:00;;;;;;;9.13;1.30;;;17.20;99.90;;;;;;5081945;28;20089;-70
2022/10/27 10:28:36;;;;;;;2.60;0.68;;;17.20;99.90;;;;;;5083868;28;20024;-69
2022/10/27 10:31:05;;;;;;;4.15;0.95;;;17.20;99.90;;;;;;5090885;27;20142;-68
2022/10/27 10:33:37;;;;;;;3.13;1.27;;;17.20;99.90;;;;;;5079196;28;20554;-70
2022/10/27 10:36:26;;;;;;;4.70;1.10;;;17.20;99.90;;;;;;5098312;28;20487;-71
2022/10/27 10:38:56;;;;;;;3.92;1.20;;;17.30;99.90;;;;;;5094759;28;20090;-69
2022/10/27 10:41:24;;;;;;;2.08;0.60;;;17.30;99.90;;;;;;5098502;27;20047;-70
2022/10/27 10:44:15;;;;;;;2.80;1.08;;;17.40;99.90;;;;;;5089309;28;20040;-69
2022/10/27 10:46:56;;;;;;;4.22;1.00;;;17.40;99.90;;;;;;5093621;28;20132;-70
2022/10/27 10:49:24;;;;;;;1.83;1.05;;;17.40;99.90;;;;;;5091880;28;20039;-72
2022/10/27 10:51:52;;;;;;;11.98;1.48;;;17.40;99.90;;;;;;5090109;28;20036;-70
2022/10/27 10:54:34;;;;;;;2.05;0.80;;;17.40;99.90;;;;;;5097001;28;20032;-69
2022/10/27 10:57:01;;;;;;;5.18;0.90;;;17.50;99.90;;;;;;5093372;28;20055;-70
2022/10/27 10:59:33;;;;;;;7.03;0.95;;;17.50;99.90;;;;;;5095123;28;20034;-71
2022/10/27 11:02:14;;;;;;;2.20;0.55;;;17.50;99.90;;;;;;5097833;28;20046;-71
2022/10/27 11:04:46;;;;;;;7.53;0.98;;;17.50;99.90;;;;;;5097775;28;20045;-69
2022/10/27 11:07:24;;;;;;;1.13;0.63;;;17.50;99.90;;;;;;5079694;28;20047;-68
2022/10/27 11:10:26;;;;;;;1.77;0.70;;;17.60;99.90;;;;;;5081689;28;20032;-69
2022/10/27 11:13:00;;;;;;;1.65;0.50;;;17.50;99.90;;;;;;5032126;28;20088;-68
2022/10/27 11:15:34;;;;;;;1.50;0.63;;;17.60;99.90;;;;;;5078691;28;20488;-68
2022/10/27 11:18:10;;;;;;;4.70;0.93;;;17.60;99.90;;;;;;5078710;28;20105;-70
2022/10/27 11:20:37;;;;;;;3.28;0.57;;;17.60;99.90;;;;;;5081955;28;20036;-69
2022/10/27 11:23:09;;;;;;;7.25;0.70;;;17.60;99.90;;;;;;5082546;28;20198;-70
2022/10/27 11:25:36;;;;;;;5.40;1.10;;;17.60;99.90;;;;;;5085149;28;20479;-70
2022/10/27 11:28:25;;;;;;;2.67;0.70;;;17.60;99.90;;;;;;5082084;28;20048;-69
2022/10/27 11:31:08;;;;;;;2.45;0.65;;;17.70;99.90;;;;;;5079845;28;20352;-71
2022/10/27 11:33:43;;;;;;;3.40;0.40;;;17.70;99.90;;;;;;5082661;28;20488;-69
2022/10/27 11:36:21;;;;;;;3.15;0.70;;;17.70;99.90;;;;;;5083626;27;20036;-68
2022/10/27 11:38:59;;;;;;;2.38;0.60;;;17.70;99.90;;;;;;5083913;28;20043;-68
2022/10/27 11:41:31;;;;;;;4.25;0.60;;;17.80;99.90;;;;;;5094285;28;20100;-68
2022/10/27 11:44:23;;;;;;;0.55;0.20;;;17.90;99.90;;;;;;5085704;28;20036;-69
2022/10/27 11:47:21;;;;;;;1.60;0.70;;;17.90;99.90;;;;;;5083320;28;20039;-70
2022/10/27 11:49:57;;;;;;;5.13;0.80;;;18.00;99.90;;;;;;5081154;28;20117;-69
2022/10/27 11:52:58;;;;;;;5.25;1.52;;;18.00;99.90;;;;;;5082016;28;20032;-67
2022/10/27 11:55:44;;;;;;;2.70;0.57;;;18.00;99.90;;;;;;5056571;28;20496;-70
2022/10/27 11:58:26;;;;;;;1.50;0.38;;;18.00;99.90;;;;;;5092324;27;20028;-72
2022/10/27 12:01:02;;;;;;;2.03;0.40;;;18.10;99.90;;;;;;5095438;27;20046;-69
2022/10/27 12:03:49;;;;;;;2.65;0.70;;;18.10;99.90;;;;;;5089977;28;20101;-70
2022/10/27 12:06:40;;;;;;;1.75;0.50;;;18.10;99.90;;;;;;5081711;28;20059;-70
2022/10/27 12:09:27;;;;;;;3.40;0.75;;;18.00;99.90;;;;;;5096831;27;20129;-69
2022/10/27 12:12:23;;;;;;;2.90;0.40;;;17.90;99.90;;;;;;5096456;27;20032;-68
2022/10/27 12:15:06;;;;;;;1.95;0.45;;;17.90;99.90;;;;;;5098388;28;20036;-69
2022/10/27 12:17:50;;;;;;;2.17;0.70;;;17.80;99.90;;;;;;5101069;27;20036;-70
2022/10/27 12:20:25;;;;;;;3.75;0.80;;;17.80;99.90;;;;;;5094507;27;20092;-71
2022/10/27 12:23:07;;;;;;;5.55;0.50;;;17.70;99.90;;;;;;5083103;28;20047;-69
2022/10/27 12:25:41;;;;;;;1.90;0.60;;;17.80;99.90;;;;;;5099572;27;20519;-70
2022/10/27 12:28:12;;;;;;;5.65;0.75;;;17.90;99.90;;;;;;5100000;27;20110;-71
2022/10/27 12:30:41;;;;;;;5.97;0.73;;;18.10;99.90;;;;;;5100027;27;20100;-68
2022/10/27 12:33:30;;;;;;;2.60;0.43;;;18.10;99.90;;;;;;5102016;27;20036;-70
2022/10/27 12:36:04;;;;;;;7.75;0.65;;;18.20;99.90;;;;;;5091856;28;20071;-72
2022/10/27 12:39:00;;;;;;;3.78;0.60;;;18.30;99.90;;;;;;5084915;28;20036;-71
2022/10/27 12:41:42;;;;;;;3.65;0.70;;;18.30;99.90;;;;;;5076424;28;20031;-69
2022/10/27 12:44:11;;;;;;;2.72;0.50;;;18.40;99.90;;;;;;5082453;28;20036;-71
2022/10/27 12:46:58;;;;;;;2.22;0.60;;;18.40;99.90;;;;;;5081212;28;20025;-70
2022/10/27 12:49:33;;;;;;;3.10;0.65;;;18.30;99.90;;;;;;5090976;27;20036;-69
2022/10/27 12:52:24;;;;;;;4.22;0.43;;;18.40;99.90;;;;;;5084527;27;20036;-71
2022/10/27 12:55:16;;;;;;;3.08;0.40;;;18.30;99.90;;;;;;5084361;27;20668;-69
2022/10/27 12:57:54;;;;;;;9.48;0.77;;;18.30;99.90;;;;;;5097220;27;20180;-70
2022/10/27 13:00:21;;;;;;;3.65;0.80;;;18.40;99.90;;;;;;5099720;28;20040;-69
2022/10/27 13:03:11;;;;;;;4.25;0.65;;;18.40;99.90;;;;;;5100974;27;20485;-69
2022/10/27 13:05:58;;;;;;;3.70;0.60;;;18.50;99.90;;;;;;5100033;27;20122;-68